Time;durP1;ratioP1;P1;durP2;ratioP2;P2;SDS_P1;SDS_P2;PMS_P1;PMS_P2;Temp;Humidity;BMP_temperature;BMP_pressure;BME280_temperature;BME280_humidity;BME280_pressure;Samples;Min_cycle;Max_cycle;Signal;HPM_P1;HPM_P2
2023/10/03 00:00:33;;;;;;;39.70;13.77;;;;;;;14.64;100.00;98935.41;4990167;28;20618;-76
2023/10/03 00:03:00;;;;;;;39.00;14.40;;;;;;;14.74;100.00;98936.78;4991424;28;20033;-76
2023/10/03 00:05:28;;;;;;;37.70;13.35;;;;;;;14.71;100.00;98918.19;4981064;28;20109;-75
2023/10/03 00:07:57;;;;;;;38.83;14.23;;;;;;;14.74;100.00;98937.59;4994608;28;20027;-76
2023/10/03 00:10:23;;;;;;;;;;;;;;;14.80;100.00;98936.72;4997575;28;20018;-76
2023/10/03 00:12:50;;;;;;;42.15;14.13;;;;;;;14.76;100.00;98926.50;4979402;28;20457;-76
2023/10/03 00:15:21;;;;;;;40.88;14.10;;;;;;;14.92;100.00;98938.66;4988902;28;20042;-76
2023/10/03 00:17:47;;;;;;;38.90;13.73;;;;;;;14.74;100.00;98925.88;4993185;28;20053;-76
2023/10/03 00:20:13;;;;;;;40.38;15.35;;;;;;;14.77;100.00;98936.31;4993963;28;20489;-76
2023/10/03 00:22:40;;;;;;;39.97;12.93;;;;;;;14.54;100.00;98901.59;4992957;28;20107;-76
2023/10/03 00:25:07;;;;;;;38.85;13.73;;;;;;;14.77;100.00;98923.53;4992590;28;20456;-77
2023/10/03 00:27:35;;;;;;;36.15;13.15;;;;;;;14.71;100.00;98904.56;5001944;28;20439;-76
2023/10/03 00:30:01;;;;;;;37.72;13.75;;;;;;;14.85;100.00;98920.50;4993021;28;20023;-76
2023/10/03 00:32:26;;;;;;;40.97;13.93;;;;;;;14.79;100.00;98906.97;4992566;28;20536;-76
2023/10/03 00:34:51;;;;;;;41.00;14.45;;;;;;;14.63;100.00;98883.91;4992939;28;20084;-76
2023/10/03 00:37:17;;;;;;;36.63;13.18;;;;;;;14.66;100.00;98906.06;4993151;28;20023;-76
2023/10/03 00:39:43;;;;;;;35.05;13.57;;;;;;;14.52;100.00;98893.63;4993995;28;20359;-76
2023/10/03 00:42:10;;;;;;;45.70;14.82;;;;;;;14.52;100.00;98901.81;5000583;28;20030;-76
2023/10/03 00:44:37;;;;;;;42.50;14.70;;;;;;;14.55;100.00;98897.84;4984070;28;20030;-76
2023/10/03 00:47:06;;;;;;;42.90;14.80;;;;;;;14.72;100.00;98912.47;4992109;28;20054;-76
2023/10/03 00:49:31;;;;;;;39.38;13.40;;;;;;;14.63;100.00;98898.34;4993655;28;20030;-76
2023/10/03 00:51:57;;;;;;;42.45;13.02;;;;;;;14.67;100.00;98901.44;4993413;28;20034;-76
2023/10/03 00:54:23;;;;;;;43.10;13.50;;;;;;;14.64;100.00;98899.19;4992593;28;20053;-77
2023/10/03 00:56:49;;;;;;;41.13;13.68;;;;;;;14.44;100.00;98877.59;4993141;28;20105;-77
2023/10/03 00:59:14;;;;;;;40.45;13.82;;;;;;;14.64;100.00;98880.13;4992294;28;20490;-76
2023/10/03 01:01:41;;;;;;;40.33;13.95;;;;;;;14.63;100.00;98865.66;4988801;28;20053;-77
2023/10/03 01:04:16;;;;;;;41.08;14.40;;;;;;;14.75;100.00;98892.13;4984797;28;20022;-77
2023/10/03 01:06:42;;;;;;;43.25;14.07;;;;;;;14.69;100.00;98875.66;4999976;28;20022;-77
2023/10/03 01:09:14;;;;;;;40.42;13.98;;;;;;;14.76;100.00;98880.19;5002607;28;20036;-77
2023/10/03 01:11:40;;;;;;;40.22;12.75;;;;;;;14.66;100.00;98881.56;4991652;28;20085;-77
2023/10/03 01:14:06;;;;;;;42.22;13.95;;;;;;;14.65;100.00;98879.91;4993446;28;20434;-77
2023/10/03 01:16:32;;;;;;;40.08;13.23;;;;;;;14.55;100.00;98885.03;4992016;28;20022;-76
2023/10/03 01:21:42;;;;;;;43.42;13.77;;;;;;;14.32;100.00;98873.97;4988477;28;20092;-77
2023/10/03 01:24:26;;;;;;;37.05;14.18;;;;;;;14.25;100.00;98877.59;5000539;28;20038;-77
2023/10/03 01:26:54;;;;;;;34.63;12.90;;;;;;;14.14;100.00;98862.00;4992651;28;20081;-77
2023/10/03 01:29:21;;;;;;;41.90;14.45;;;;;;;14.19;100.00;98873.03;4990516;28;20052;-77
2023/10/03 01:31:48;;;;;;;43.30;13.52;;;;;;;14.09;100.00;98841.97;4991450;28;20026;-77
2023/10/03 01:34:15;;;;;;;40.72;14.60;;;;;;;14.05;100.00;98846.22;5005705;28;20041;-76
2023/10/03 01:36:41;;;;;;;38.42;13.60;;;;;;;14.14;100.00;98874.78;4991779;28;20461;-76
2023/10/03 01:39:06;;;;;;;42.90;14.10;;;;;;;14.11;100.00;98880.66;4992509;28;20065;-77
2023/10/03 01:41:32;;;;;;;39.63;13.82;;;;;;;13.90;100.00;98862.88;4994979;28;20037;-77
2023/10/03 01:43:58;;;;;;;36.55;12.90;;;;;;;13.79;100.00;98859.81;4991477;28;20018;-76
2023/10/03 01:46:26;;;;;;;39.40;13.50;;;;;;;13.94;100.00;98874.97;4983428;28;20073;-77
2023/10/03 01:48:51;;;;;;;43.83;14.90;;;;;;;13.97;100.00;98871.81;4992394;28;20109;-77
2023/10/03 01:51:18;;;;;;;39.35;13.85;;;;;;;13.89;100.00;98858.50;4991534;28;20046;-77
2023/10/03 01:53:45;;;;;;;40.10;12.93;;;;;;;13.50;100.00;98796.09;4992202;28;20022;-78
2023/10/03 01:56:10;;;;;;;37.28;13.63;;;;;;;13.90;100.00;98844.66;4994309;28;20034;-77
2023/10/03 01:58:35;;;;;;;41.03;14.40;;;;;;;13.90;100.00;98841.13;4988350;28;20026;-78
2023/10/03 02:01:01;;;;;;;40.67;13.50;;;;;;;13.95;100.00;98857.59;4983655;28;20474;-77
2023/10/03 02:03:29;;;;;;;36.95;13.85;;;;;;;13.61;100.00;98824.44;4990778;28;20029;-77
2023/10/03 02:05:55;;;;;;;36.65;12.80;;;;;;;13.48;100.00;98827.25;4992115;28;20026;-76
2023/10/03 02:08:20;;;;;;;38.33;13.85;;;;;;;13.49;100.00;98824.34;4983659;28;20026;-77
2023/10/03 02:10:50;;;;;;;38.90;13.43;;;;;;;13.54;100.00;98845.41;4998605;28;20018;-77
2023/10/03 02:13:21;;;;;;;42.22;13.90;;;;;;;13.75;100.00;98858.63;4991254;28;20034;-77
2023/10/03 02:15:51;;;;;;;38.22;13.23;;;;;;;13.72;100.00;98858.22;4990459;28;20113;-77
2023/10/03 02:18:18;;;;;;;36.67;14.05;;;;;;;13.78;100.00;98841.00;4990782;28;20018;-77
2023/10/03 02:21:01;;;;;;;41.17;14.05;;;;;;;13.91;100.00;98845.50;4992220;28;20026;-77
2023/10/03 02:23:27;;;;;;;38.55;13.50;;;;;;;13.94;100.00;98832.28;4996473;28;20073;-76
2023/10/03 02:25:55;;;;;;;32.90;13.30;;;;;;;13.94;100.00;98823.31;4990911;28;20022;-77
2023/10/03 02:28:21;;;;;;;35.60;12.93;;;;;;;13.95;100.00;98827.69;4990720;28;20028;-77
2023/10/03 02:30:50;;;;;;;38.15;12.77;;;;;;;13.85;100.00;98813.75;4992260;28;20030;-77
2023/10/03 02:33:17;;;;;;;37.40;12.90;;;;;;;13.94;100.00;98818.69;4992060;28;20023;-76
2023/10/03 02:35:47;;;;;;;37.50;12.88;;;;;;;13.85;100.00;98813.75;4987447;28;20053;-76
2023/10/03 02:38:57;;;;;;;38.17;13.05;;;;;;;13.77;100.00;98802.09;4985326;28;20430;-77
2023/10/03 02:41:07;;;;;;;36.35;13.07;;;;;;;13.95;100.00;98819.50;4991853;28;20498;-77
2023/10/03 02:43:34;;;;;;;38.10;14.15;;;;;;;14.10;100.00;98809.09;4992427;28;20031;-77
2023/10/03 02:46:00;;;;;;;34.50;12.85;;;;;;;14.13;100.00;98799.66;4992555;28;20026;-77
2023/10/03 02:48:26;;;;;;;33.55;13.02;;;;;;;14.29;100.00;98811.84;4992542;28;20042;-78
2023/10/03 02:50:51;;;;;;;37.25;11.80;;;;;;;14.24;100.00;98809.78;4991821;28;20092;-77
2023/10/03 02:53:20;;;;;;;38.72;13.70;;;;;;;14.34;100.00;98804.63;4982612;28;20374;-77
2023/10/03 02:55:54;;;;;;;41.35;13.60;;;;;;;14.36;100.00;98794.38;4986569;28;20031;-78
2023/10/03 02:58:20;;;;;;;39.33;12.57;;;;;;;14.52;100.00;98765.69;4988792;28;20330;-77
2023/10/03 03:00:47;;;;;;;40.33;12.95;;;;;;;14.70;100.00;98773.03;4992006;28;20030;-76
2023/10/03 03:03:14;;;;;;;34.90;12.63;;;;;;;14.74;100.00;98778.81;4990737;28;20113;-77
2023/10/03 03:05:41;;;;;;;38.97;13.20;;;;;;;14.64;100.00;98763.84;4990323;28;20089;-77
2023/10/03 03:10:57;;;;;;;39.38;12.48;;;;;;;14.40;100.00;98790.09;4989434;28;20026;-77
2023/10/03 03:13:24;;;;;;;39.65;13.77;;;;;;;14.42;100.00;98792.63;4994898;28;20048;-77
2023/10/03 03:18:42;;;;;;;37.03;11.90;;;;;;;14.36;100.00;98788.91;4994256;28;20037;-76
2023/10/03 03:21:13;;;;;;;34.38;11.88;;;;;;;14.32;100.00;98790.41;4991699;28;20034;-76
2023/10/03 03:23:42;;;;;;;38.42;13.27;;;;;;;14.48;100.00;98808.03;4987086;28;20018;-77
2023/10/03 03:28:37;;;;;;;31.48;11.93;;;;;;;14.28;100.00;98789.22;4992856;28;20034;-76
2023/10/03 03:31:02;;;;;;;36.20;13.32;;;;;;;14.27;100.00;98787.56;4993526;28;20026;-77
2023/10/03 03:33:27;;;;;;;39.53;12.45;;;;;;;14.30;100.00;98795.25;4994251;28;20030;-77
2023/10/03 03:35:54;;;;;;;33.28;12.38;;;;;;;14.37;100.00;98776.97;4995940;28;20421;-77
2023/10/03 03:38:20;;;;;;;33.80;11.82;;;;;;;14.53;100.00;98782.88;4994275;28;20077;-77
2023/10/03 03:40:47;;;;;;;33.25;11.95;;;;;;;14.64;100.00;98791.09;4993476;28;20026;-77
2023/10/03 03:43:16;;;;;;;34.80;12.13;;;;;;;14.62;100.00;98787.78;5002739;28;20032;-76
2023/10/03 03:45:42;;;;;;;37.72;12.52;;;;;;;14.41;100.00;98763.75;4992905;28;20029;-77
2023/10/03 03:48:07;;;;;;;35.40;12.30;;;;;;;14.49;100.00;98768.88;5001766;28;20026;-77
2023/10/03 03:50:32;;;;;;;35.75;12.30;;;;;;;14.55;100.00;98797.09;4994124;28;20018;-77
2023/10/03 03:53:02;;;;;;;32.38;11.30;;;;;;;14.58;100.00;98783.84;4992733;28;20027;-77
2023/10/03 03:55:29;;;;;;;31.58;11.50;;;;;;;14.70;100.00;98797.53;4991525;28;20621;-76
2023/10/03 03:58:07;;;;;;;37.63;11.98;;;;;;;14.78;100.00;98786.31;4989544;28;20040;-76
2023/10/03 04:00:34;;;;;;;37.67;12.00;;;;;;;14.66;100.00;98780.78;4991172;28;21395;-76
2023/10/03 04:03:05;;;;;;;32.33;11.63;;;;;;;14.56;100.00;98788.69;5001626;28;20033;-77
2023/10/03 04:05:31;;;;;;;29.40;10.95;;;;;;;14.55;100.00;98786.22;4992421;28;20081;-77
2023/10/03 04:07:58;;;;;;;30.67;11.18;;;;;;;14.57;100.00;98795.81;4993774;28;20029;-78
2023/10/03 04:10:26;;;;;;;35.50;11.98;;;;;;;14.40;100.00;98759.34;5001301;28;20022;-77
2023/10/03 04:12:51;;;;;;;33.97;11.23;;;;;;;14.39;100.00;98744.91;4994437;28;20030;-77
2023/10/03 04:15:20;;;;;;;35.85;11.95;;;;;;;14.56;100.00;98755.19;4992602;28;20033;-77
2023/10/03 04:17:46;;;;;;;29.67;10.73;;;;;;;14.64;100.00;98747.50;4994742;28;20022;-78
2023/10/03 04:22:51;;;;;;;32.83;11.10;;;;;;;14.71;100.00;98771.13;4993343;28;20115;-77
2023/10/03 04:25:20;;;;;;;35.92;11.65;;;;;;;14.59;100.00;98769.19;4995967;28;20027;-77
2023/10/03 04:27:56;;;;;;;31.23;12.02;;;;;;;14.61;100.00;98769.75;4992506;28;20030;-77
2023/10/03 04:30:26;;;;;;;33.25;11.70;;;;;;;14.65;100.00;98776.44;5006257;28;20022;-77
2023/10/03 04:32:53;;;;;;;27.80;11.55;;;;;;;14.56;100.00;98776.97;4997378;28;20037;-77
2023/10/03 04:35:19;;;;;;;31.25;10.73;;;;;;;14.53;100.00;98767.38;4991505;28;20386;-77
2023/10/03 04:37:46;;;;;;;26.80;10.15;;;;;;;14.58;100.00;98774.84;5000022;28;20030;-77
2023/10/03 04:40:21;;;;;;;28.67;10.75;;;;;;;14.56;100.00;98772.34;4992907;28;20027;-76
2023/10/03 04:42:46;;;;;;;27.15;10.57;;;;;;;14.63;100.00;98773.09;4989253;28;20030;-77
2023/10/03 04:45:14;;;;;;;33.47;11.02;;;;;;;14.74;100.00;98765.22;4982938;28;20037;-77
2023/10/03 04:47:43;;;;;;;29.35;10.93;;;;;;;14.77;100.00;98756.56;4993830;28;20050;-77
2023/10/03 04:50:10;;;;;;;29.17;10.32;;;;;;;14.88;100.00;98758.50;4993315;28;20081;-76
2023/10/03 04:52:35;;;;;;;31.10;10.48;;;;;;;14.84;100.00;98747.25;4991972;28;20034;-77
2023/10/03 04:55:01;;;;;;;24.58;9.52;;;;;;;14.79;100.00;98738.09;4991857;28;20032;-77
2023/10/03 04:57:29;;;;;;;30.42;10.55;;;;;;;14.75;100.00;98748.66;4992520;28;20038;-77
2023/10/03 04:59:59;;;;;;;31.48;10.40;;;;;;;14.59;100.00;98730.22;4992960;28;20104;-77
2023/10/03 05:02:25;;;;;;;30.02;10.10;;;;;;;14.52;100.00;98738.47;4992149;28;20107;-77
2023/10/03 05:04:51;;;;;;;29.85;10.45;;;;;;;14.49;100.00;98752.53;4991350;28;20043;-77
2023/10/03 05:07:16;;;;;;;28.75;10.07;;;;;;;14.48;100.00;98764.47;4992625;28;20478;-77
2023/10/03 05:09:42;;;;;;;31.35;10.52;;;;;;;14.43;100.00;98756.97;4996850;28;20034;-74
2023/10/03 05:12:07;;;;;;;26.35;9.73;;;;;;;14.39;100.00;98736.75;4990868;28;20022;-76
2023/10/03 05:14:34;;;;;;;28.25;10.70;;;;;;;14.55;100.00;98765.25;4989235;28;20030;-76
2023/10/03 05:17:01;;;;;;;25.63;9.55;;;;;;;14.36;100.00;98747.28;4987610;28;20092;-76
2023/10/03 05:19:27;;;;;;;28.60;10.27;;;;;;;14.42;100.00;98749.06;4985346;28;20057;-76
2023/10/03 05:21:52;;;;;;;28.52;10.35;;;;;;;14.45;100.00;98759.50;4992616;28;20419;-77
2023/10/03 05:24:19;;;;;;;27.30;9.90;;;;;;;14.42;100.00;98758.06;4993157;28;20553;-76
2023/10/03 05:26:44;;;;;;;29.95;9.57;;;;;;;14.45;100.00;98745.88;4991703;28;20109;-77
2023/10/03 05:29:10;;;;;;;26.83;10.30;;;;;;;14.52;100.00;98741.19;4995674;28;20050;-76
2023/10/03 05:31:40;;;;;;;28.15;9.32;;;;;;;14.71;100.00;98746.59;4989557;28;20060;-76
2023/10/03 05:34:07;;;;;;;29.05;9.80;;;;;;;14.79;100.00;98744.38;4994484;28;20622;-78
2023/10/03 05:36:32;;;;;;;31.63;10.25;;;;;;;14.80;100.00;98737.03;4985127;28;20544;-76
2023/10/03 05:38:58;;;;;;;24.98;9.68;;;;;;;14.98;100.00;98747.03;4990476;28;20026;-76
2023/10/03 05:41:23;;;;;;;23.25;9.13;;;;;;;15.03;100.00;98747.16;4991445;28;20622;-76
2023/10/03 05:43:54;;;;;;;25.45;9.20;;;;;;;15.04;100.00;98741.50;4991413;28;20026;-77
2023/10/03 05:46:20;;;;;;;23.13;9.10;;;;;;;15.26;100.00;98754.56;4989293;28;20390;-74
2023/10/03 05:48:46;;;;;;;24.45;9.40;;;;;;;15.30;100.00;98744.81;4985489;28;20018;-75
2023/10/03 05:51:12;;;;;;;30.73;10.23;;;;;;;15.48;100.00;98750.22;4990684;28;20121;-75
2023/10/03 05:53:40;;;;;;;23.38;9.35;;;;;;;15.63;100.00;98759.81;4991212;28;20058;-74
2023/10/03 05:56:06;;;;;;;26.87;9.13;;;;;;;15.63;100.00;98755.16;4992467;28;20023;-76
2023/10/03 05:58:32;;;;;;;26.63;9.18;;;;;;;15.72;100.00;98737.41;4987963;28;20351;-75
2023/10/03 06:01:01;;;;;;;22.67;8.90;;;;;;;15.90;100.00;98761.00;4992274;28;20039;-74
2023/10/03 06:03:26;;;;;;;25.77;9.43;;;;;;;16.02;100.00;98752.78;4992528;28;20034;-75
2023/10/03 06:05:51;;;;;;;21.92;8.20;;;;;;;16.38;100.00;98765.28;4990423;28;20030;-75
2023/10/03 06:08:18;;;;;;;25.67;8.60;;;;;;;16.50;100.00;98746.13;4995235;28;20477;-75
2023/10/03 06:10:43;;;;;;;23.98;9.20;;;;;;;16.73;100.00;98744.38;4988605;28;20015;-75
2023/10/03 06:13:11;;;;;;;19.90;8.68;;;;;;;18.53;100.00;98744.13;4992465;28;20188;-75
2023/10/03 06:15:42;;;;;;;23.45;8.93;;;;;;;20.26;100.00;98729.34;4990185;28;20023;-73
2023/10/03 06:18:08;;;;;;;23.23;8.30;;;;;;;22.05;100.00;98724.81;4988039;28;20028;-74
2023/10/03 06:20:34;;;;;;;23.77;8.77;;;;;;;23.86;100.00;98728.91;4990802;28;20030;-74
2023/10/03 06:23:00;;;;;;;23.30;8.93;;;;;;;23.98;100.00;98747.84;5000824;28;20023;-75
2023/10/03 06:25:25;;;;;;;24.60;9.15;;;;;;;24.03;100.00;98743.09;4989217;28;20030;-75
2023/10/03 06:27:51;;;;;;;22.25;8.95;;;;;;;24.71;100.00;98755.84;4994247;28;20081;-74
2023/10/03 06:30:18;;;;;;;21.42;8.40;;;;;;;24.15;100.00;98741.84;4992437;28;20033;-75
2023/10/03 06:32:44;;;;;;;20.55;9.05;;;;;;;24.31;100.00;98762.66;4992457;28;20390;-78
2023/10/03 06:35:11;;;;;;;19.85;8.68;;;;;;;25.11;98.38;98739.75;4992687;28;20144;-76
2023/10/03 06:37:37;;;;;;;23.98;9.45;;;;;;;23.96;100.00;98745.38;5002329;28;20202;-74
2023/10/03 06:40:07;;;;;;;23.05;9.57;;;;;;;22.70;100.00;98751.56;4985584;28;20026;-78
2023/10/03 06:42:35;;;;;;;;;;;;;;;22.00;100.00;98763.38;4993752;28;20123;-79
2023/10/03 06:45:03;;;;;;;21.88;7.85;;;;;;;23.94;100.00;98741.25;4994883;28;19913;-78
2023/10/03 06:47:29;;;;;;;20.55;8.48;;;;;;;26.04;96.25;98743.75;4998388;28;20033;-77
2023/10/03 06:49:55;;;;;;;23.33;8.75;;;;;;;25.61;95.56;98760.59;4995127;28;20044;-78
2023/10/03 06:52:20;;;;;;;19.20;8.15;;;;;;;26.56;87.71;98736.06;4992432;28;20026;-75
2023/10/03 06:54:45;;;;;;;19.35;7.20;;;;;;;26.49;84.41;98728.16;4995394;28;20027;-77
2023/10/03 06:57:11;;;;;;;19.55;7.57;;;;;;;26.35;84.64;98735.66;4995366;28;20030;-74
2023/10/03 06:59:36;;;;;;;18.38;6.90;;;;;;;26.84;79.57;98739.63;4993290;28;20080;-75
2023/10/03 07:02:03;;;;;;;15.23;6.45;;;;;;;27.75;71.78;98761.59;5002753;28;20037;-75
2023/10/03 07:04:29;;;;;;;15.32;7.43;;;;;;;29.11;67.11;98755.56;5002793;28;20061;-74
2023/10/03 07:06:54;;;;;;;14.13;7.10;;;;;;;30.50;63.11;98755.28;4992073;28;20433;-72
2023/10/03 07:09:19;;;;;;;21.02;7.90;;;;;;;30.07;61.08;98739.50;4995150;28;21874;-77
2023/10/03 07:11:48;;;;;;;18.80;7.10;;;;;;;31.42;58.34;98749.72;4994870;28;20093;-79
2023/10/03 07:14:14;;;;;;;14.80;7.55;;;;;;;32.38;55.84;98745.06;4998664;28;20018;-80
2023/10/03 07:16:41;;;;;;;14.50;6.80;;;;;;;32.14;54.41;98748.66;5008010;28;20026;-78
2023/10/03 07:19:09;;;;;;;15.57;7.03;;;;;;;32.21;53.37;98737.72;4985622;28;20037;-78
2023/10/03 07:21:34;;;;;;;14.73;6.78;;;;;;;32.49;53.22;98726.66;4988041;28;20676;-78
2023/10/03 07:24:00;;;;;;;14.13;7.25;;;;;;;32.55;52.30;98724.44;4995896;28;20097;-80
2023/10/03 07:26:27;;;;;;;12.15;6.15;;;;;;;32.92;51.08;98705.56;4997760;28;20105;-79
2023/10/03 07:28:57;;;;;;;14.63;6.68;;;;;;;33.66;49.38;98742.59;4998525;28;20030;-78
2023/10/03 07:31:22;;;;;;;11.32;6.50;;;;;;;34.58;48.40;98742.59;4999095;28;20049;-79
2023/10/03 07:33:47;;;;;;;13.13;6.40;;;;;;;34.88;47.22;98743.72;4992450;28;20053;-77
2023/10/03 07:36:17;;;;;;;11.52;5.72;;;;;;;33.49;47.93;98751.31;4989854;28;20073;-81
2023/10/03 07:38:42;;;;;;;11.32;5.88;;;;;;;34.62;46.71;98738.69;5001682;28;20037;-78
2023/10/03 07:41:13;;;;;;;12.90;6.55;;;;;;;34.08;46.88;98756.19;4996597;28;20026;-79
2023/10/03 07:43:39;;;;;;;14.77;6.15;;;;;;;35.41;45.08;98703.88;5004817;28;20022;-79
2023/10/03 07:46:04;;;;;;;11.70;5.95;;;;;;;36.14;43.22;98735.03;4994002;28;20398;-76
2023/10/03 07:48:30;;;;;;;13.68;5.20;;;;;;;34.12;45.61;98745.06;4997179;28;20026;-76
2023/10/03 07:50:55;;;;;;;11.20;5.70;;;;;;;34.56;46.47;98745.75;4997866;28;20046;-76
2023/10/03 07:53:20;;;;;;;11.48;5.80;;;;;;;34.91;45.31;98748.59;4997423;28;20033;-75
2023/10/03 07:55:46;;;;;;;11.65;5.93;;;;;;;35.80;44.79;98751.69;4996233;28;20501;-68
2023/10/03 07:58:14;;;;;;;10.52;5.43;;;;;;;34.57;45.68;98738.97;5001540;28;20022;-71
2023/10/03 08:00:44;;;;;;;12.68;5.40;;;;;;;34.30;45.92;98739.88;5009734;28;20046;-78
2023/10/03 08:03:11;;;;;;;13.88;5.60;;;;;;;33.81;46.49;98747.44;4995746;28;20026;-77
2023/10/03 08:05:37;;;;;;;10.57;5.53;;;;;;;35.50;44.97;98751.47;4992178;28;20489;-76
2023/10/03 08:08:04;;;;;;;12.07;5.47;;;;;;;35.00;45.06;98750.38;4994789;28;20037;-76
2023/10/03 08:10:30;;;;;;;11.60;5.65;;;;;;;34.76;45.65;98738.19;4993016;28;20060;-75
2023/10/03 08:12:55;;;;;;;14.35;5.75;;;;;;;35.12;45.09;98736.22;4988055;28;20076;-77
2023/10/03 08:15:22;;;;;;;13.23;5.38;;;;;;;35.41;45.09;98743.25;5000842;28;20514;-74
2023/10/03 08:17:53;;;;;;;11.25;5.25;;;;;;;37.73;42.26;98705.88;4993258;28;20050;-74
2023/10/03 08:20:20;;;;;;;10.50;5.15;;;;;;;38.76;40.09;98741.88;4994269;28;20478;-76
2023/10/03 08:22:51;;;;;;;11.40;5.22;;;;;;;38.92;39.28;98758.59;4985829;28;20030;-77
2023/10/03 08:25:21;;;;;;;11.05;4.80;;;;;;;39.24;38.65;98744.59;4992941;28;20415;-78
2023/10/03 08:27:51;;;;;;;13.07;4.68;;;;;;;38.24;39.15;98752.38;4993131;28;20026;-78
2023/10/03 08:30:30;;;;;;;9.07;4.82;;;;;;;36.46;40.70;98748.84;4989751;28;20034;-71
2023/10/03 08:32:57;;;;;;;9.18;4.47;;;;;;;33.14;44.34;98757.50;4999594;28;20054;-70
2023/10/03 08:35:37;;;;;;;8.48;4.57;;;;;;;31.01;48.41;98756.94;4993140;28;20393;-71
2023/10/03 08:38:07;;;;;;;10.77;4.93;;;;;;;30.93;49.27;98743.84;5000687;28;20042;-72
2023/10/03 08:40:36;;;;;;;12.48;5.43;;;;;;;29.09;52.60;98755.09;4993357;28;20034;-72
2023/10/03 08:43:08;;;;;;;14.75;5.22;;;;;;;28.59;53.91;98757.09;4991544;28;20046;-71
2023/10/03 08:45:41;;;;;;;10.90;5.22;;;;;;;29.16;54.33;98758.19;4994578;28;20034;-70
2023/10/03 08:48:07;;;;;;;15.35;5.03;;;;;;;28.79;56.15;98752.06;4991436;28;20145;-74
2023/10/03 08:50:46;;;;;;;11.45;5.10;;;;;;;28.27;57.15;98760.22;4989051;28;20270;-74
2023/10/03 08:53:27;;;;;;;11.75;4.60;;;;;;;28.63;57.43;98758.09;4992808;28;20389;-80
2023/10/03 08:56:01;;;;;;;11.55;4.88;;;;;;;29.04;57.69;98759.66;5009287;28;20105;-79
2023/10/03 08:58:27;;;;;;;10.98;4.68;;;;;;;29.65;55.53;98736.53;4993391;28;20026;-76
2023/10/03 09:01:02;;;;;;;11.18;4.63;;;;;;;30.92;55.13;98752.59;4997672;28;20429;-75
2023/10/03 09:03:51;;;;;;;9.15;4.88;;;;;;;31.40;52.54;98749.25;4994305;28;20022;-74
2023/10/03 09:06:23;;;;;;;12.80;4.82;;;;;;;31.13;53.13;98760.97;4988350;28;20034;-76
2023/10/03 09:09:08;;;;;;;12.00;4.78;;;;;;;33.65;49.74;98746.59;4993754;28;20029;-77
2023/10/03 09:11:37;;;;;;;9.93;4.18;;;;;;;35.20;46.43;98749.25;4991668;28;20042;-74
2023/10/03 09:14:06;;;;;;;12.38;4.82;;;;;;;36.00;44.52;98755.28;4993322;28;20049;-78
2023/10/03 09:16:38;;;;;;;13.02;4.97;;;;;;;36.20;44.26;98748.41;4992217;28;20113;-74
2023/10/03 09:19:04;;;;;;;13.68;5.30;;;;;;;36.76;43.08;98724.38;4989717;28;20037;-76
2023/10/03 09:21:30;;;;;;;10.60;4.70;;;;;;;37.09;42.38;98744.56;4989948;28;20030;-75
2023/10/03 09:24:01;;;;;;;13.38;4.90;;;;;;;36.23;43.07;98748.84;4991787;28;20042;-77
2023/10/03 09:26:46;;;;;;;10.00;4.82;;;;;;;35.72;43.72;98747.91;4992918;28;20065;-76
2023/10/03 09:29:30;;;;;;;6.65;4.05;;;;;;;34.94;44.70;98752.66;4984996;28;20602;-78
2023/10/03 09:32:17;;;;;;;8.80;4.28;;;;;;;34.94;44.52;98749.84;4992710;28;20039;-77
2023/10/03 09:34:44;;;;;;;9.27;4.28;;;;;;;36.70;41.92;98737.16;4991577;28;20110;-76
2023/10/03 09:37:10;;;;;;;8.80;4.75;;;;;;;38.07;41.04;98732.06;4991748;28;20441;-74
2023/10/03 09:39:48;;;;;;;9.20;4.88;;;;;;;38.63;39.29;98746.25;4992782;28;20022;-72
2023/10/03 09:42:19;;;;;;;10.63;4.50;;;;;;;38.43;38.95;98721.06;4989534;28;20479;-75
2023/10/03 09:44:57;;;;;;;7.03;3.88;;;;;;;38.27;39.50;98723.31;4996192;28;20058;-75
2023/10/03 09:47:31;;;;;;;6.20;3.80;;;;;;;38.97;39.71;98708.09;4993693;28;20030;-76
2023/10/03 09:50:08;;;;;;;8.18;4.18;;;;;;;40.69;37.56;98702.78;4989278;28;20030;-75
2023/10/03 09:52:37;;;;;;;8.90;4.63;;;;;;;40.87;37.36;98713.25;4988145;28;20026;-76
2023/10/03 09:55:17;;;;;;;7.85;4.18;;;;;;;41.14;37.32;98703.06;4984926;28;20270;-76
2023/10/03 09:57:51;;;;;;;8.07;4.38;;;;;;;40.92;36.93;98707.16;4990394;28;20058;-76
2023/10/03 10:03:37;;;;;;;8.70;4.30;;;;;;;41.73;35.89;98701.56;4987017;28;20085;-77
2023/10/03 10:06:13;;;;;;;8.55;4.32;;;;;;;42.13;35.01;98691.56;4984941;28;20034;-75
2023/10/03 10:08:49;;;;;;;7.72;3.92;;;;;;;43.64;34.97;98682.19;4985349;28;20464;-75
2023/10/03 10:11:14;;;;;;;5.80;3.28;;;;;;;42.73;36.26;98671.50;4992646;28;20046;-76
2023/10/03 10:14:09;;;;;;;6.75;3.22;;;;;;;40.97;36.87;98681.22;4981674;28;20076;-76
2023/10/03 10:17:06;;;;;;;8.93;3.47;;;;;;;39.59;37.95;98686.50;5003526;28;20072;-76
2023/10/03 10:20:09;;;;;;;6.28;3.13;;;;;;;38.40;39.84;98682.25;4987487;28;20095;-76
2023/10/03 10:22:56;;;;;;;5.20;2.97;;;;;;;36.50;41.57;98670.78;4994107;28;20390;-78
2023/10/03 10:25:28;;;;;;;8.85;3.80;;;;;;;36.08;43.00;98680.19;4992104;28;20022;-76
2023/10/03 10:28:02;;;;;;;6.70;3.30;;;;;;;34.37;44.86;98678.25;4990611;28;20504;-76
2023/10/03 10:30:27;;;;;;;5.18;3.15;;;;;;;34.02;46.17;98662.97;4989199;28;20026;-76
2023/10/03 10:33:14;;;;;;;6.32;3.40;;;;;;;32.41;48.93;98689.19;4990995;28;20521;-75
2023/10/03 10:35:54;;;;;;;9.93;3.80;;;;;;;33.33;49.76;98681.97;4991548;28;20027;-76
2023/10/03 10:38:21;;;;;;;6.00;3.50;;;;;;;34.11;49.23;98690.88;4991924;28;20030;-75
2023/10/03 10:41:11;;;;;;;8.45;3.92;;;;;;;34.47;48.06;98683.31;4991241;28;20026;-75
2023/10/03 10:44:05;;;;;;;7.45;3.25;;;;;;;33.90;48.67;98693.91;5001057;28;20088;-77
2023/10/03 10:47:04;;;;;;;7.15;3.53;;;;;;;34.17;48.48;98703.47;5002377;28;20029;-76
2023/10/03 10:49:33;;;;;;;8.27;3.17;;;;;;;33.78;48.81;98700.44;4987952;28;20026;-76
2023/10/03 10:52:13;;;;;;;8.20;3.47;;;;;;;34.08;49.20;98694.41;4990501;28;20382;-75
2023/10/03 10:54:42;;;;;;;6.47;3.28;;;;;;;34.12;49.74;98688.91;4992260;28;20027;-75
2023/10/03 10:57:11;;;;;;;9.00;4.05;;;;;;;33.48;49.03;98679.53;4992776;28;20426;-75
2023/10/03 10:59:40;;;;;;;10.30;3.75;;;;;;;32.69;48.90;98700.47;4988955;28;20026;-78
2023/10/03 11:02:19;;;;;;;11.70;3.80;;;;;;;32.19;50.58;98707.25;4991853;28;20091;-76
2023/10/03 11:04:55;;;;;;;9.52;3.80;;;;;;;32.17;50.68;98701.19;4993756;28;20035;-75
2023/10/03 11:07:22;;;;;;;10.70;3.75;;;;;;;32.35;51.32;98687.78;4993175;28;20097;-75
2023/10/03 11:09:50;;;;;;;8.73;3.80;;;;;;;31.04;53.06;98698.75;4990553;28;20058;-76
2023/10/03 11:12:26;;;;;;;8.75;3.80;;;;;;;31.58;53.16;98702.34;4991087;28;20033;-75
2023/10/03 11:14:55;;;;;;;8.35;3.63;;;;;;;31.64;52.45;98689.78;4989908;28;20038;-76
2023/10/03 11:17:22;;;;;;;6.53;3.45;;;;;;;31.22;53.74;98698.25;4988493;28;20049;-75
2023/10/03 11:19:49;;;;;;;9.05;3.88;;;;;;;31.61;53.69;98704.47;4989967;28;20656;-75
2023/10/03 11:22:17;;;;;;;7.20;3.42;;;;;;;31.67;52.63;98705.88;4991928;28;20113;-75
2023/10/03 11:24:43;;;;;;;9.50;3.45;;;;;;;31.76;53.26;98710.56;4986577;28;20069;-76
2023/10/03 11:27:09;;;;;;;7.13;3.55;;;;;;;31.90;53.43;98708.25;4990762;28;20030;-75
2023/10/03 11:29:46;;;;;;;5.65;3.45;;;;;;;32.30;53.63;98713.19;4993660;28;20505;-75
2023/10/03 11:32:25;;;;;;;7.30;3.72;;;;;;;31.60;53.43;98700.03;5007802;28;20030;-76
2023/10/03 11:34:55;;;;;;;8.23;3.45;;;;;;;31.55;54.65;98717.03;4993730;28;20062;-76
2023/10/03 11:37:41;;;;;;;6.97;3.42;;;;;;;31.80;54.46;98717.09;4993111;28;20029;-76
2023/10/03 11:40:08;;;;;;;8.45;3.40;;;;;;;31.79;54.95;98713.47;4994365;28;20026;-75
2023/10/03 11:42:33;;;;;;;9.00;3.90;;;;;;;31.06;54.09;98711.22;4993649;28;20022;-75
2023/10/03 11:45:02;;;;;;;6.97;3.50;;;;;;;31.08;55.44;98719.28;4989661;28;21099;-77